Time;durP1;ratioP1;P1;durP2;ratioP2;P2;SDS_P1;SDS_P2;PMS_P1;PMS_P2;Temp;Humidity;BMP_temperature;BMP_pressure;BME280_temperature;BME280_humidity;BME280_pressure;Samples;Min_cycle;Max_cycle;Signal;HPM_P1;HPM_P2
2021/06/07 00:00:28;;;;;;;784.05;737.33;;;;;;;16.48;75.46;98879.19;5038707;28;20025;-67
2021/06/07 00:02:54;;;;;;;722.08;680.22;;;;;;;16.45;75.92;98881.00;5041513;28;20370;-67
2021/06/07 00:05:20;;;;;;;713.35;671.67;;;;;;;16.45;75.82;98877.56;5041039;28;20051;-66
2021/06/07 00:07:46;;;;;;;710.10;669.17;;;;;;;16.43;76.05;98877.63;5043561;28;20377;-67
2021/06/07 00:10:12;;;;;;;751.42;707.25;;;;;;;16.46;75.57;98872.31;5039509;28;20061;-67
2021/06/07 00:12:38;;;;;;;826.83;772.05;;;;;;;16.51;75.53;98882.50;5042580;28;20334;-66
2021/06/07 00:15:08;;;;;;;784.35;733.45;;;;;;;16.52;75.67;98891.09;5039665;28;20030;-66
2021/06/07 00:17:33;;;;;;;812.15;758.88;;;;;;;16.50;75.17;98878.25;5044906;28;20045;-65
2021/06/07 00:19:59;;;;;;;824.38;770.40;;;;;;;16.44;75.15;98887.06;5040767;28;20391;-67
2021/06/07 00:22:24;;;;;;;820.78;768.25;;;;;;;16.47;75.51;98878.34;5050544;28;20382;-67
2021/06/07 00:24:50;;;;;;;824.67;773.05;;;;;;;16.37;75.29;98887.38;5041511;28;20374;-67
2021/06/07 00:27:15;;;;;;;830.38;777.70;;;;;;;16.30;75.77;98886.75;5042135;28;20037;-67
2021/06/07 00:29:41;;;;;;;821.17;767.97;;;;;;;16.33;75.43;98891.84;5041406;28;20032;-67
2021/06/07 00:32:06;;;;;;;832.30;775.13;;;;;;;16.40;75.55;98897.59;5040853;28;20450;-67
2021/06/07 00:34:32;;;;;;;826.75;776.03;;;;;;;16.40;75.44;98893.28;5040419;28;20024;-67
2021/06/07 00:36:57;;;;;;;844.38;783.38;;;;;;;16.40;75.19;98889.84;5043809;28;20033;-67
2021/06/07 00:39:23;;;;;;;548.95;518.63;;;;;;;16.33;75.31;98896.16;5042990;28;20033;-67
2021/06/07 00:41:49;;;;;;;838.50;778.28;;;;;;;16.35;74.96;98895.19;5039129;28;20080;-67
2021/06/07 00:44:19;;;;;;;839.35;781.00;;;;;;;16.34;75.29;98895.22;5043228;28;20032;-67
2021/06/07 00:46:45;;;;;;;825.65;767.20;;;;;;;16.34;74.99;98884.88;5041003;28;20029;-67
2021/06/07 00:49:11;;;;;;;832.20;775.60;;;;;;;16.28;74.72;98888.56;5039675;28;20083;-67
2021/06/07 00:51:38;;;;;;;831.55;774.08;;;;;;;16.26;75.15;98894.69;5041271;28;20374;-67
2021/06/07 00:54:05;;;;;;;817.78;761.35;;;;;;;16.20;75.49;98882.84;5039441;28;20651;-67
2021/06/07 00:56:31;;;;;;;818.28;762.65;;;;;;;16.21;75.02;98892.25;5037935;28;20036;-67
2021/06/07 00:58:56;;;;;;;814.53;760.92;;;;;;;16.23;75.00;98887.91;5044614;28;20029;-67
2021/06/07 01:01:24;;;;;;;824.90;770.28;;;;;;;16.20;75.56;98888.03;5048879;28;20445;-67
2021/06/07 01:03:52;;;;;;;826.53;771.35;;;;;;;16.18;75.60;98887.22;5041985;28;20060;-67
2021/06/07 01:06:18;;;;;;;819.00;765.92;;;;;;;16.13;75.42;98883.09;5039881;28;20029;-67
2021/06/07 01:08:43;;;;;;;823.45;768.45;;;;;;;15.99;76.21;98873.28;5047106;28;20067;-67
2021/06/07 01:11:09;;;;;;;826.85;771.25;;;;;;;16.11;75.52;98887.50;5040102;28;20064;-67
2021/06/07 01:13:36;;;;;;;820.92;766.05;;;;;;;16.19;75.37;98883.75;5040095;28;20030;-67
2021/06/07 01:16:02;;;;;;;828.10;774.30;;;;;;;16.14;75.56;98877.03;5040325;28;20036;-67
2021/06/07 01:18:30;;;;;;;834.92;778.22;;;;;;;16.22;75.25;98878.44;5041125;28;20041;-67
2021/06/07 01:21:00;;;;;;;708.70;665.58;;;;;;;16.27;74.77;98886.03;5041760;28;20040;-67
2021/06/07 01:23:26;;;;;;;829.28;771.95;;;;;;;16.18;74.76;98882.03;5042567;28;20294;-67
2021/06/07 01:25:53;;;;;;;811.83;757.78;;;;;;;16.20;74.36;98880.25;5041295;28;20025;-67
2021/06/07 01:28:19;;;;;;;815.03;763.17;;;;;;;16.15;75.55;98873.56;5038779;28;20044;-67
2021/06/07 01:30:48;;;;;;;674.25;635.13;;;;;;;16.09;75.72;98871.19;5040576;28;20033;-65
2021/06/07 01:33:16;;;;;;;684.85;645.78;;;;;;;16.20;74.98;98880.25;5040268;28;20029;-67
2021/06/07 01:35:42;;;;;;;694.08;653.78;;;;;;;16.03;75.92;98879.19;5040741;28;20036;-67
2021/06/07 01:38:10;;;;;;;768.13;723.33;;;;;;;15.83;76.00;98877.31;5040735;28;20029;-67
2021/06/07 01:40:39;;;;;;;547.40;517.25;;;;;;;15.66;77.14;98877.91;5040828;28;20289;-67
2021/06/07 01:43:05;;;;;;;519.80;491.65;;;;;;;15.48;78.01;98871.66;5047681;28;20083;-67
2021/06/07 01:45:35;;;;;;;562.33;531.20;;;;;;;15.33;78.55;98873.91;5043337;28;20378;-67
2021/06/07 01:48:03;;;;;;;546.60;516.58;;;;;;;15.17;79.72;98876.16;5039572;28;20090;-66
2021/06/07 01:50:28;;;;;;;645.97;609.15;;;;;;;15.31;79.11;98879.13;5039822;28;20037;-66
2021/06/07 01:52:54;;;;;;;831.65;776.33;;;;;;;15.46;77.91;98875.16;5046638;28;20040;-67
2021/06/07 01:55:27;;;;;;;778.47;732.63;;;;;;;15.51;77.67;98879.31;5039506;28;20124;-67
2021/06/07 01:57:53;;;;;;;778.70;732.40;;;;;;;15.46;77.98;98877.75;5041119;28;20025;-67
2021/06/07 02:00:27;;;;;;;748.75;703.55;;;;;;;15.58;77.33;98871.34;5041473;28;20282;-66
2021/06/07 02:02:53;;;;;;;744.75;699.95;;;;;;;15.37;78.55;98881.50;5041574;28;20028;-66
2021/06/07 02:05:29;;;;;;;784.45;738.00;;;;;;;15.32;78.50;98891.13;5041319;28;20037;-65
2021/06/07 02:07:57;;;;;;;748.92;704.85;;;;;;;15.19;79.50;98882.09;5042672;28;20049;-66
2021/06/07 02:10:26;;;;;;;726.20;682.83;;;;;;;15.39;79.06;98886.63;5039281;28;20037;-65
2021/06/07 02:12:52;;;;;;;664.78;626.50;;;;;;;15.34;78.86;98884.19;5040915;28;20053;-64
2021/06/07 02:15:18;;;;;;;772.45;726.72;;;;;;;15.36;78.72;98887.53;5041841;28;20063;-63
2021/06/07 02:17:43;;;;;;;787.15;740.17;;;;;;;15.50;78.29;98874.19;5040938;28;20029;-62
2021/06/07 02:20:12;;;;;;;783.67;737.15;;;;;;;15.63;77.66;98884.94;5041217;28;20120;-66
2021/06/07 02:22:40;;;;;;;775.45;729.35;;;;;;;15.61;77.16;98890.19;5042271;28;20025;-66
2021/06/07 02:25:08;;;;;;;806.13;757.17;;;;;;;15.71;76.78;98888.09;5040290;28;20152;-66
2021/06/07 02:27:34;;;;;;;829.63;777.17;;;;;;;15.58;76.90;98890.28;5040069;28;20408;-64
2021/06/07 02:30:05;;;;;;;819.33;765.70;;;;;;;15.55;77.29;98887.81;5041973;28;20125;-66
2021/06/07 02:32:31;;;;;;;776.70;712.67;;;;;;;15.48;77.66;98892.31;5040210;28;20436;-65
2021/06/07 02:34:56;;;;;;;772.47;708.70;;;;;;;15.38;78.08;98897.84;5047297;28;20140;-65
2021/06/07 02:37:22;;;;;;;821.88;765.38;;;;;;;15.34;77.56;98888.50;5040612;28;20114;-64
2021/06/07 02:39:49;;;;;;;784.33;719.92;;;;;;;15.29;78.31;98893.81;5043751;28;20053;-64
2021/06/07 02:42:15;;;;;;;814.20;754.97;;;;;;;15.21;79.49;98887.22;5044329;28;20102;-65
2021/06/07 02:44:40;;;;;;;805.47;743.00;;;;;;;15.23;78.76;98885.47;5043520;28;20049;-64
2021/06/07 02:47:06;;;;;;;803.88;748.42;;;;;;;15.37;77.96;98893.56;5044699;28;20026;-65
2021/06/07 02:49:32;;;;;;;753.47;708.33;;;;;;;15.29;78.21;98896.41;5047237;28;20027;-66
2021/06/07 02:51:58;;;;;;;751.28;700.53;;;;;;;15.29;77.99;98893.81;5051769;28;20028;-66
2021/06/07 02:54:23;;;;;;;692.42;651.58;;;;;;;15.32;77.58;98893.72;5042432;28;20326;-66
2021/06/07 02:56:48;;;;;;;732.10;688.70;;;;;;;15.33;77.47;98897.16;5043128;28;20389;-66
2021/06/07 02:59:14;;;;;;;750.25;705.58;;;;;;;15.29;77.87;98896.41;5042605;28;20037;-66
2021/06/07 03:01:40;;;;;;;754.50;709.88;;;;;;;15.19;78.37;98900.19;5043046;28;20021;-64
2021/06/07 03:04:05;;;;;;;774.15;727.95;;;;;;;15.14;79.28;98894.34;5044864;28;20021;-64
2021/06/07 03:06:31;;;;;;;762.08;716.63;;;;;;;15.00;79.54;98904.28;5051380;28;20389;-65
2021/06/07 03:08:56;;;;;;;756.20;711.63;;;;;;;14.99;79.50;98906.00;5043599;28;20530;-65
2021/06/07 03:11:22;;;;;;;797.78;749.30;;;;;;;15.01;79.17;98900.81;5043418;28;20034;-64
2021/06/07 03:13:47;;;;;;;743.58;699.67;;;;;;;15.08;79.14;98904.88;5044425;28;20025;-66
2021/06/07 03:16:13;;;;;;;755.15;709.58;;;;;;;15.01;79.29;98913.72;5043149;28;20073;-64
2021/06/07 03:18:39;;;;;;;754.65;707.03;;;;;;;14.98;79.29;98895.72;5042234;28;20096;-65
2021/06/07 03:21:06;;;;;;;799.80;741.95;;;;;;;14.92;79.16;98903.69;5051888;28;20397;-65
2021/06/07 03:23:34;;;;;;;801.35;739.17;;;;;;;14.88;80.49;98913.28;5045123;28;20029;-65
2021/06/07 03:26:00;;;;;;;783.60;733.85;;;;;;;14.88;80.54;98904.69;5041850;28;20044;-65
2021/06/07 03:28:26;;;;;;;786.55;722.78;;;;;;;14.78;81.26;98916.19;5045668;28;20444;-64
2021/06/07 03:30:52;;;;;;;784.47;720.13;;;;;;;14.93;79.85;98916.56;5043555;28;20053;-63
2021/06/07 03:33:19;;;;;;;795.70;733.00;;;;;;;15.01;79.21;98912.00;5042964;28;20048;-63
2021/06/07 03:35:46;;;;;;;789.70;724.95;;;;;;;15.00;79.80;98915.47;5041088;28;20033;-62
2021/06/07 03:38:13;;;;;;;789.95;726.58;;;;;;;15.00;80.03;98912.88;5041949;28;20290;-63
2021/06/07 03:40:43;;;;;;;768.35;721.75;;;;;;;15.14;79.91;98914.16;5041250;28;20359;-63
2021/06/07 03:43:09;;;;;;;754.58;709.90;;;;;;;15.23;78.98;98903.53;5051021;28;20025;-63
2021/06/07 03:45:35;;;;;;;769.95;723.85;;;;;;;15.35;78.54;98909.13;5047352;28;20025;-63
2021/06/07 03:48:01;;;;;;;785.58;720.97;;;;;;;15.45;77.84;98902.75;5040881;28;20035;-63
2021/06/07 03:50:28;;;;;;;785.00;720.70;;;;;;;15.50;77.81;98898.31;5041456;28;20306;-63
2021/06/07 03:52:54;;;;;;;790.47;725.60;;;;;;;15.59;78.21;98898.88;5042370;28;20036;-63
2021/06/07 03:55:22;;;;;;;806.55;741.42;;;;;;;15.84;77.29;98899.69;5041170;28;20573;-63
2021/06/07 03:57:48;;;;;;;806.70;741.67;;;;;;;15.96;76.42;98909.59;5040312;28;20033;-63
2021/06/07 04:00:16;;;;;;;811.42;746.20;;;;;;;16.10;75.91;98904.75;5043316;28;20098;-64
2021/06/07 04:02:42;;;;;;;818.97;753.40;;;;;;;16.22;75.77;98911.22;5039276;28;20029;-64
2021/06/07 04:05:09;;;;;;;830.35;764.63;;;;;;;16.31;75.54;98908.28;5040383;28;20021;-64
2021/06/07 04:07:35;;;;;;;827.25;761.63;;;;;;;16.35;75.52;98909.88;5042343;28;20049;-63
2021/06/07 04:10:14;;;;;;;831.92;766.03;;;;;;;16.42;75.42;98913.94;5041495;28;20327;-64
2021/06/07 04:12:39;;;;;;;832.75;766.78;;;;;;;16.43;74.94;98911.25;5041107;28;20037;-64
2021/06/07 04:15:07;;;;;;;713.63;671.58;;;;;;;16.56;74.67;98918.56;5040560;28;20033;-63
2021/06/07 04:17:33;;;;;;;838.63;772.47;;;;;;;16.67;73.58;98919.88;5043900;28;20661;-63
2021/06/07 04:19:59;;;;;;;833.88;767.95;;;;;;;16.85;72.53;98910.53;5041811;28;20067;-65
2021/06/07 04:22:24;;;;;;;769.28;724.25;;;;;;;16.99;71.60;98909.97;5042161;28;20045;-63
2021/06/07 04:24:50;;;;;;;842.28;776.30;;;;;;;16.95;72.09;98914.44;5042178;28;20033;-64
2021/06/07 04:27:16;;;;;;;849.38;783.10;;;;;;;17.07;71.98;98911.34;5041037;28;20290;-65
2021/06/07 04:29:42;;;;;;;856.72;790.03;;;;;;;17.31;70.61;98906.94;5040609;28;20393;-64
2021/06/07 04:32:09;;;;;;;850.67;784.25;;;;;;;17.41;70.18;98912.53;5041432;28;20046;-65
2021/06/07 04:34:35;;;;;;;863.67;796.80;;;;;;;17.36;69.81;98908.41;5050250;28;20397;-66
2021/06/07 04:37:02;;;;;;;864.42;797.50;;;;;;;17.61;69.40;98915.19;5040330;28;20025;-67
2021/06/07 04:39:27;;;;;;;869.42;802.53;;;;;;;17.72;69.03;98916.41;5043231;28;20431;-67
2021/06/07 04:41:52;;;;;;;877.63;810.03;;;;;;;17.69;69.08;98916.56;5040820;28;20036;-67
2021/06/07 04:44:18;;;;;;;872.88;805.45;;;;;;;17.76;68.73;98909.34;5040859;28;20568;-67
2021/06/07 04:46:43;;;;;;;818.65;770.80;;;;;;;17.88;68.50;98918.31;5048877;28;20329;-67
2021/06/07 04:49:09;;;;;;;872.05;805.13;;;;;;;17.90;68.83;98921.69;5042246;28;20048;-67
2021/06/07 04:51:34;;;;;;;899.38;843.70;;;;;;;18.12;68.58;98925.03;5040819;28;20061;-66
2021/06/07 04:54:00;;;;;;;878.70;816.08;;;;;;;18.24;67.96;98921.88;5043386;28;20025;-64
2021/06/07 04:56:26;;;;;;;871.63;820.58;;;;;;;18.30;67.76;98928.53;5041665;28;20627;-64
2021/06/07 04:58:51;;;;;;;887.45;833.63;;;;;;;18.50;67.12;98929.31;5040760;28;20350;-65
2021/06/07 05:01:17;;;;;;;906.72;850.50;;;;;;;18.67;66.28;98936.38;5038279;28;20041;-64
2021/06/07 05:03:43;;;;;;;890.65;838.67;;;;;;;18.68;66.06;98925.88;5040867;28;20029;-64
2021/06/07 05:06:09;;;;;;;904.35;839.00;;;;;;;18.70;66.80;98936.22;5038924;28;20041;-63
2021/06/07 05:08:35;;;;;;;897.92;844.95;;;;;;;18.98;67.05;98931.38;5040907;28;20041;-63
2021/06/07 05:11:00;;;;;;;920.05;851.00;;;;;;;19.07;66.36;98930.09;5039076;28;20550;-65
2021/06/07 05:13:27;;;;;;;829.53;779.50;;;;;;;19.32;64.10;98924.53;5039881;28;20029;-65
2021/06/07 05:15:54;;;;;;;808.63;760.78;;;;;;;19.42;64.16;98928.38;5047228;28;20413;-65
2021/06/07 05:18:20;;;;;;;882.97;830.42;;;;;;;19.44;63.73;98926.56;5039382;28;20432;-65
2021/06/07 05:20:46;;;;;;;930.28;861.22;;;;;;;19.59;63.48;98931.00;5041519;28;20032;-64
2021/06/07 05:23:12;;;;;;;900.35;847.28;;;;;;;19.50;63.66;98939.25;5038993;28;20028;-64
2021/06/07 05:25:40;;;;;;;932.97;876.83;;;;;;;19.84;63.47;98931.44;5057111;28;20605;-64
2021/06/07 05:28:09;;;;;;;823.83;774.60;;;;;;;19.89;63.16;98934.63;5039274;28;20076;-64
2021/06/07 05:30:36;;;;;;;817.72;768.88;;;;;;;19.92;63.01;98937.06;5040578;28;20039;-64
2021/06/07 05:33:03;;;;;;;893.17;839.90;;;;;;;20.05;62.38;98935.50;5039852;28;20401;-64
2021/06/07 05:35:31;;;;;;;901.45;847.78;;;;;;;20.20;62.20;98936.44;5040004;28;20029;-64
2021/06/07 05:37:58;;;;;;;984.60;923.53;;;;;;;20.15;62.08;98943.69;5040275;28;20060;-64
2021/06/07 05:40:24;;;;;;;951.30;893.90;;;;;;;20.24;62.78;98942.38;5040012;28;20026;-64
2021/06/07 05:42:51;;;;;;;971.28;911.95;;;;;;;20.20;62.53;98944.25;5042457;28;20484;-64
2021/06/07 05:45:17;;;;;;;965.53;895.55;;;;;;;20.39;61.95;98937.19;5040694;28;20680;-64
2021/06/07 05:47:43;;;;;;;813.08;763.88;;;;;;;20.32;61.28;98946.28;5042453;28;20017;-64
2021/06/07 05:50:12;;;;;;;925.95;870.45;;;;;;;20.29;62.00;98936.00;5041034;28;20295;-64
2021/06/07 05:52:45;;;;;;;937.10;881.03;;;;;;;20.31;62.82;98928.97;5041954;28;20022;-64
2021/06/07 05:55:32;;;;;;;960.30;902.30;;;;;;;20.43;61.90;98932.66;5040687;28;20048;-66
2021/06/07 05:58:00;;;;;;;943.15;887.00;;;;;;;20.48;61.49;98938.47;5030844;28;20048;-65
2021/06/07 06:00:29;;;;;;;926.03;870.65;;;;;;;20.70;61.37;98936.38;5039660;28;20102;-66
2021/06/07 06:02:55;;;;;;;949.50;893.22;;;;;;;20.86;60.97;98937.19;5041369;28;20033;-66
2021/06/07 06:05:21;;;;;;;930.65;866.85;;;;;;;21.06;60.43;98937.84;5040959;28;20040;-66
2021/06/07 06:07:48;;;;;;;739.70;694.00;;;;;;;21.06;61.08;98938.69;5041011;28;20057;-66
2021/06/07 06:10:15;;;;;;;852.78;801.25;;;;;;;21.14;60.23;98933.06;5039900;28;20029;-66
2021/06/07 06:12:42;;;;;;;892.65;838.67;;;;;;;21.11;60.31;98934.03;5039800;28;20040;-66
2021/06/07 06:15:10;;;;;;;875.22;822.17;;;;;;;21.20;60.62;98936.16;5044698;28;20025;-66
2021/06/07 06:17:36;;;;;;;801.00;751.67;;;;;;;21.21;60.79;98935.25;5044303;28;20026;-66
2021/06/07 06:20:04;;;;;;;840.70;789.45;;;;;;;21.46;60.18;98933.81;5043750;28;20029;-67
2021/06/07 06:22:29;;;;;;;978.40;913.85;;;;;;;21.55;60.03;98935.91;5044935;28;20029;-66
2021/06/07 06:24:55;;;;;;;837.95;786.45;;;;;;;21.69;59.80;98941.97;5044470;28;20091;-65
2021/06/07 06:27:21;;;;;;;859.17;806.55;;;;;;;21.55;58.94;98936.75;5046558;28;20082;-66
2021/06/07 06:29:46;;;;;;;854.63;802.08;;;;;;;21.53;58.35;98937.75;5043560;28;20032;-66
2021/06/07 06:32:12;;;;;;;892.67;838.53;;;;;;;21.62;57.60;98940.66;5043008;28;20029;-66
2021/06/07 06:34:39;;;;;;;977.10;917.85;;;;;;;21.90;56.84;98933.81;5045688;28;20037;-66
2021/06/07 06:37:05;;;;;;;947.03;889.58;;;;;;;21.87;56.30;98934.81;5044380;28;20033;-66
2021/06/07 06:39:31;;;;;;;974.28;915.10;;;;;;;21.68;57.13;98929.03;5042465;28;20089;-66
2021/06/07 06:41:56;;;;;;;1033.70;968.63;;;;;;;21.61;56.77;98933.75;5043270;28;20029;-66
2021/06/07 06:44:22;;;;;;;1016.58;954.75;;;;;;;21.68;57.08;98932.47;5045091;28;20017;-66
2021/06/07 06:46:47;;;;;;;1009.17;947.88;;;;;;;22.08;56.46;98935.31;5043036;28;20429;-66
2021/06/07 06:49:13;;;;;;;1043.70;977.03;;;;;;;22.33;55.29;98938.94;5041691;28;20078;-66
2021/06/07 06:51:38;;;;;;;995.58;934.70;;;;;;;22.13;54.87;98934.13;5043356;28;20293;-66
2021/06/07 06:54:04;;;;;;;1024.05;961.35;;;;;;;22.25;55.70;98933.38;5049843;28;20075;-66
2021/06/07 06:56:29;;;;;;;950.95;892.97;;;;;;;22.49;55.22;98940.63;5042278;28;20033;-65
2021/06/07 06:58:55;;;;;;;1038.07;973.25;;;;;;;22.65;54.63;98926.50;5042184;28;20028;-66
2021/06/07 07:01:20;;;;;;;976.55;912.67;;;;;;;22.37;54.67;98939.59;5042413;28;20553;-66
2021/06/07 07:03:47;;;;;;;959.88;901.25;;;;;;;22.43;54.32;98936.63;5045223;28;20040;-66
2021/06/07 07:06:13;;;;;;;854.88;801.25;;;;;;;22.55;53.57;98942.84;5043397;28;20029;-66
2021/06/07 07:08:38;;;;;;;1022.67;950.10;;;;;;;22.26;54.39;98939.44;5044691;28;20068;-65
2021/06/07 07:11:04;;;;;;;1022.03;949.03;;;;;;;22.45;54.08;98942.56;5042706;28;20060;-65
2021/06/07 07:13:30;;;;;;;660.33;618.03;;;;;;;22.56;53.64;98945.38;5044745;28;20083;-65
2021/06/07 07:15:55;;;;;;;612.58;573.92;;;;;;;22.36;53.10;98945.78;5044405;28;20033;-66
2021/06/07 07:18:20;;;;;;;579.70;543.80;;;;;;;22.51;52.45;98942.19;5049847;28;20037;-64
2021/06/07 07:20:46;;;;;;;563.97;529.00;;;;;;;22.79;51.90;98935.28;5043257;28;20064;-67
2021/06/07 07:23:12;;;;;;;573.80;537.80;;;;;;;22.70;50.94;98937.50;5043691;28;20029;-66
2021/06/07 07:25:39;;;;;;;603.03;564.75;;;;;;;22.92;50.94;98938.75;5042070;28;20033;-65
2021/06/07 07:28:06;;;;;;;593.13;555.55;;;;;;;23.14;48.88;98932.03;5042148;28;20390;-65
2021/06/07 07:30:33;;;;;;;1037.35;963.55;;;;;;;23.21;47.89;98937.75;5042597;28;20083;-65
2021/06/07 07:32:59;;;;;;;990.78;921.45;;;;;;;23.31;48.42;98935.34;5043286;28;20033;-65
2021/06/07 07:35:25;;;;;;;1045.50;971.85;;;;;;;23.42;48.92;98941.56;5050493;28;20072;-65
2021/06/07 07:37:51;;;;;;;1061.35;986.67;;;;;;;23.42;48.20;98938.94;5039962;28;20275;-65
2021/06/07 07:40:19;;;;;;;546.40;513.13;;;;;;;23.51;48.42;98940.09;5042783;28;20056;-65
2021/06/07 07:42:46;;;;;;;452.33;426.65;;;;;;;23.52;47.93;98947.88;5042998;28;20037;-65
2021/06/07 07:45:14;;;;;;;958.55;893.28;;;;;;;23.59;47.53;98940.47;5042423;28;20032;-65
2021/06/07 07:47:39;;;;;;;443.15;417.77;;;;;;;23.65;47.39;98940.88;5040401;28;20056;-65
2021/06/07 07:50:09;;;;;;;442.48;416.95;;;;;;;23.91;46.69;98940.88;5043541;28;20040;-68
2021/06/07 07:52:35;;;;;;;560.80;525.95;;;;;;;23.82;45.64;98938.88;5045076;28;20026;-64
2021/06/07 07:55:00;;;;;;;626.17;585.22;;;;;;;23.84;46.59;98940.47;5042440;28;20036;-65
2021/06/07 07:57:26;;;;;;;733.25;685.30;;;;;;;23.77;46.09;98941.81;5043526;28;20024;-65
2021/06/07 07:59:52;;;;;;;561.78;526.33;;;;;;;23.86;45.48;98942.97;5040510;28;20108;-65
2021/06/07 08:02:17;;;;;;;485.90;457.02;;;;;;;24.09;45.60;98944.88;5043489;28;20036;-65
2021/06/07 08:04:44;;;;;;;590.80;553.10;;;;;;;24.20;45.54;98942.38;5042845;28;20035;-65
2021/06/07 08:07:10;;;;;;;603.25;564.53;;;;;;;24.11;46.90;98937.72;5041558;28;20049;-65
2021/06/07 08:09:36;;;;;;;572.13;535.90;;;;;;;24.14;47.32;98937.53;5042903;28;20100;-63
2021/06/07 08:12:03;;;;;;;611.63;572.10;;;;;;;24.21;47.43;98944.06;5042164;28;20286;-65
2021/06/07 08:14:28;;;;;;;623.97;583.03;;;;;;;24.41;46.68;98945.28;5043261;28;20033;-64
2021/06/07 08:16:55;;;;;;;635.08;593.63;;;;;;;24.28;47.55;98942.66;5044771;28;20039;-65
2021/06/07 08:19:22;;;;;;;675.60;631.40;;;;;;;24.42;46.91;98937.31;5039417;28;20025;-65
2021/06/07 08:21:47;;;;;;;624.45;583.78;;;;;;;24.13;47.26;98941.09;5041552;28;20362;-65
2021/06/07 08:24:13;;;;;;;662.42;618.85;;;;;;;24.32;48.13;98945.91;5045102;28;20091;-65
2021/06/07 08:26:38;;;;;;;645.65;603.47;;;;;;;24.51;47.30;98941.91;5039448;28;20040;-65
2021/06/07 08:29:07;;;;;;;657.65;613.92;;;;;;;24.75;46.70;98936.69;5040807;28;20343;-65
2021/06/07 08:31:32;;;;;;;681.88;636.72;;;;;;;24.76;47.06;98941.00;5040073;28;20029;-65
2021/06/07 08:33:58;;;;;;;738.50;689.42;;;;;;;24.71;47.14;98942.25;5041010;28;20397;-65
2021/06/07 08:36:23;;;;;;;669.30;624.88;;;;;;;24.83;46.31;98946.63;5041819;28;20349;-65
2021/06/07 08:38:49;;;;;;;671.63;626.92;;;;;;;24.90;46.06;98945.28;5039835;28;20037;-65
2021/06/07 08:41:14;;;;;;;776.15;724.03;;;;;;;25.02;45.63;98945.22;5041803;28;20032;-66
2021/06/07 08:43:40;;;;;;;662.25;618.13;;;;;;;25.12;46.01;98942.75;5040906;28;20174;-65
2021/06/07 08:46:05;;;;;;;658.70;614.83;;;;;;;25.24;45.75;98936.63;5040662;28;20294;-65
2021/06/07 08:48:31;;;;;;;752.90;703.10;;;;;;;25.10;46.12;98935.94;5041343;28;20025;-65
2021/06/07 08:51:01;;;;;;;727.72;679.53;;;;;;;25.03;46.03;98935.56;5040675;28;20357;-65
2021/06/07 08:53:27;;;;;;;723.95;675.90;;;;;;;25.13;46.25;98933.09;5041685;28;20040;-65
2021/06/07 08:55:53;;;;;;;767.28;716.33;;;;;;;25.21;46.38;98931.56;5040245;28;20021;-64
2021/06/07 08:58:19;;;;;;;701.10;654.55;;;;;;;25.44;45.57;98928.09;5041230;28;20473;-64
2021/06/07 09:00:44;;;;;;;693.85;647.72;;;;;;;25.24;45.69;98926.13;5042601;28;20071;-65
2021/06/07 09:03:14;;;;;;;741.53;692.42;;;;;;;25.47;44.54;98934.88;5042919;28;20032;-64
2021/06/07 09:05:41;;;;;;;791.13;738.58;;;;;;;25.34;45.25;98944.63;5041993;28;20033;-65
2021/06/07 09:08:11;;;;;;;791.03;738.28;;;;;;;25.44;45.71;98928.09;5039565;28;20064;-69
2021/06/07 09:10:48;;;;;;;772.53;721.25;;;;;;;25.29;45.65;98931.03;5041243;28;20033;-69
2021/06/07 09:13:16;;;;;;;795.58;742.97;;;;;;;25.75;44.58;98925.81;5047306;28;20025;-69
2021/06/07 09:15:48;;;;;;;823.28;768.75;;;;;;;25.82;41.16;98924.38;5042165;28;20053;-69
2021/06/07 09:18:25;;;;;;;759.20;708.45;;;;;;;25.77;40.48;98929.13;5042462;28;20346;-68
2021/06/07 09:21:02;;;;;;;796.45;743.78;;;;;;;26.16;41.80;98926.06;5059291;28;20087;-68
2021/06/07 09:23:48;;;;;;;787.80;732.50;;;;;;;26.06;41.08;98926.91;5041976;28;20036;-68
2021/06/07 09:26:30;;;;;;;793.78;740.67;;;;;;;26.26;40.20;98927.06;5039330;28;20394;-69
2021/06/07 09:28:58;;;;;;;830.97;775.58;;;;;;;25.99;40.96;98925.72;5041018;28;20052;-69
2021/06/07 09:31:31;;;;;;;837.72;782.08;;;;;;;26.07;39.91;98926.78;5048235;28;20289;-68
2021/06/07 09:33:57;;;;;;;914.90;853.50;;;;;;;26.29;40.69;98928.63;5041883;28;20272;-67
2021/06/07 09:36:29;;;;;;;815.00;760.42;;;;;;;26.59;38.54;98922.72;5040825;28;20033;-67
2021/06/07 09:39:13;;;;;;;900.50;838.88;;;;;;;26.13;38.39;98921.06;5041194;28;20025;-69
2021/06/07 09:41:57;;;;;;;898.25;837.47;;;;;;;26.31;38.12;98927.53;5039949;28;20100;-69
2021/06/07 09:44:24;;;;;;;822.38;767.05;;;;;;;26.58;37.49;98927.16;5042845;28;20029;-66
2021/06/07 09:46:51;;;;;;;879.38;819.55;;;;;;;26.77;37.76;98923.88;5040312;28;20091;-69
2021/06/07 09:49:19;;;;;;;875.67;816.17;;;;;;;27.00;36.18;98922.88;5043771;28;20371;-68
2021/06/07 09:51:56;;;;;;;921.92;858.72;;;;;;;27.18;36.08;98913.47;5044528;28;20024;-68
2021/06/07 09:54:23;;;;;;;910.15;848.53;;;;;;;27.40;36.10;98909.91;5045913;28;20350;-69
2021/06/07 09:56:57;;;;;;;1148.35;999.90;;;;;;;27.27;35.02;98904.81;5043993;28;20025;-68
2021/06/07 09:59:23;;;;;;;1162.03;999.90;;;;;;;27.40;35.00;98909.91;5044757;28;20495;-68
2021/06/07 10:01:48;;;;;;;1157.00;999.90;;;;;;;27.17;34.58;98914.44;5043912;28;20033;-69
2021/06/07 10:04:15;;;;;;;1161.72;999.90;;;;;;;26.97;35.14;98911.78;5045871;28;20405;-69
2021/06/07 10:06:41;;;;;;;1149.72;999.90;;;;;;;27.00;35.81;98914.97;5047044;28;20029;-68
2021/06/07 10:09:08;;;;;;;1150.72;999.90;;;;;;;26.50;36.88;98907.66;5045026;28;20393;-68
2021/06/07 10:11:40;;;;;;;1165.10;999.90;;;;;;;26.62;37.17;98917.22;5047262;28;20044;-69
2021/06/07 10:14:09;;;;;;;1155.95;999.90;;;;;;;26.52;34.29;98911.03;5047100;28;20032;-69
2021/06/07 10:16:48;;;;;;;1138.65;999.90;;;;;;;26.61;34.44;98905.00;5045434;28;20108;-69
2021/06/07 10:19:30;;;;;;;1109.85;999.90;;;;;;;26.87;35.12;98908.19;5045637;28;20036;-69
2021/06/07 10:21:56;;;;;;;1126.13;999.90;;;;;;;27.31;35.37;98904.56;5046135;28;20120;-69
2021/06/07 10:24:22;;;;;;;1128.13;999.90;;;;;;;27.43;34.71;98904.38;5045138;28;20028;-69
2021/06/07 10:26:47;;;;;;;1146.20;999.90;;;;;;;27.55;33.61;98906.00;5042663;28;20035;-69
2021/06/07 10:29:13;;;;;;;1164.90;999.90;;;;;;;27.64;32.54;98897.34;5044276;28;20071;-69
2021/06/07 10:31:40;;;;;;;1142.82;999.90;;;;;;;28.13;31.78;98901.91;5044969;28;20044;-69
2021/06/07 10:34:10;;;;;;;1096.82;999.90;;;;;;;27.64;32.48;98904.41;5044767;28;20094;-70
2021/06/07 10:36:38;;;;;;;1120.10;999.90;;;;;;;27.50;33.57;98900.28;5042375;28;20036;-69
2021/06/07 10:39:17;;;;;;;1138.25;999.90;;;;;;;27.19;34.02;98901.16;5044600;28;20029;-70
2021/06/07 10:41:45;;;;;;;1171.70;999.90;;;;;;;27.14;35.67;98903.31;5046570;28;20358;-69
2021/06/07 10:44:11;;;;;;;1173.85;999.90;;;;;;;27.10;33.56;98897.47;5042586;28;20021;-69
2021/06/07 10:46:44;;;;;;;1169.53;999.90;;;;;;;26.96;33.05;98902.19;5041998;28;20033;-69
2021/06/07 10:49:39;;;;;;;1165.55;999.90;;;;;;;26.71;33.64;98898.06;5040638;28;20333;-69
2021/06/07 10:52:09;;;;;;;1167.55;999.90;;;;;;;26.98;32.92;98903.75;5043094;28;20033;-69
2021/06/07 10:54:37;;;;;;;1173.53;999.90;;;;;;;26.83;32.69;98899.69;5043364;28;20033;-69
2021/06/07 10:57:25;;;;;;;1169.68;999.90;;;;;;;27.00;32.66;98901.81;5043314;28;20083;-69
2021/06/07 10:59:53;;;;;;;1158.50;999.90;;;;;;;26.88;30.50;98902.81;4964511;28;20049;-69